sensor_id;sensor_type;location;lat;lon;timestamp;P1;durP1;ratioP1;P2;durP2;ratioP2
33987;SDS011;37428;53.580;-1.666;2024-01-06T00:02:35;4.65;;;3.95;;
33987;SDS011;37428;53.580;-1.666;2024-01-06T00:05:37;5.68;;;3.78;;
33987;SDS011;37428;53.580;-1.666;2024-01-06T00:08:41;4.38;;;3.70;;
33987;SDS011;37428;53.580;-1.666;2024-01-06T00:11:43;4.00;;;3.50;;
33987;SDS011;37428;53.580;-1.666;2024-01-06T00:14:45;4.03;;;3.67;;
33987;SDS011;37428;53.580;-1.666;2024-01-06T00:17:49;3.35;;;3.05;;
33987;SDS011;37428;53.580;-1.666;2024-01-06T00:20:51;4.38;;;3.80;;
33987;SDS011;37428;53.580;-1.666;2024-01-06T00:23:55;4.28;;;3.90;;
33987;SDS011;37428;53.580;-1.666;2024-01-06T00:26:57;4.63;;;3.65;;
33987;SDS011;37428;53.580;-1.666;2024-01-06T00:29:59;3.33;;;3.03;;
33987;SDS011;37428;53.580;-1.666;2024-01-06T00:33:02;3.65;;;3.35;;
33987;SDS011;37428;53.580;-1.666;2024-01-06T00:36:04;3.33;;;2.83;;
33987;SDS011;37428;53.580;-1.666;2024-01-06T00:39:10;3.85;;;2.90;;
33987;SDS011;37428;53.580;-1.666;2024-01-06T00:42:12;2.85;;;2.63;;
33987;SDS011;37428;53.580;-1.666;2024-01-06T00:45:15;4.95;;;2.90;;
33987;SDS011;37428;53.580;-1.666;2024-01-06T00:48:18;4.85;;;3.30;;
33987;SDS011;37428;53.580;-1.666;2024-01-06T00:51:20;3.15;;;2.83;;
33987;SDS011;37428;53.580;-1.666;2024-01-06T00:54:24;3.17;;;2.88;;
33987;SDS011;37428;53.580;-1.666;2024-01-06T00:57:26;2.55;;;2.30;;
33987;SDS011;37428;53.580;-1.666;2024-01-06T01:03:31;3.40;;;2.40;;
33987;SDS011;37428;53.580;-1.666;2024-01-06T01:06:33;2.63;;;2.08;;
33987;SDS011;37428;53.580;-1.666;2024-01-06T01:09:39;3.10;;;2.03;;
33987;SDS011;37428;53.580;-1.666;2024-01-06T01:12:41;3.88;;;2.75;;
33987;SDS011;37428;53.580;-1.666;2024-01-06T01:15:44;2.97;;;2.05;;
33987;SDS011;37428;53.580;-1.666;2024-01-06T01:18:46;3.10;;;2.58;;
33987;SDS011;37428;53.580;-1.666;2024-01-06T01:24:55;2.88;;;1.77;;
33987;SDS011;37428;53.580;-1.666;2024-01-06T01:27:57;3.08;;;1.90;;
33987;SDS011;37428;53.580;-1.666;2024-01-06T01:30:59;2.30;;;2.10;;
33987;SDS011;37428;53.580;-1.666;2024-01-06T01:34:01;3.63;;;2.20;;
33987;SDS011;37428;53.580;-1.666;2024-01-06T01:37:04;3.88;;;2.47;;
33987;SDS011;37428;53.580;-1.666;2024-01-06T01:40:08;5.32;;;1.92;;
33987;SDS011;37428;53.580;-1.666;2024-01-06T01:43:15;2.63;;;1.90;;
33987;SDS011;37428;53.580;-1.666;2024-01-06T01:46:18;2.97;;;1.95;;
33987;SDS011;37428;53.580;-1.666;2024-01-06T01:49:20;2.25;;;1.63;;
33987;SDS011;37428;53.580;-1.666;2024-01-06T01:52:23;1.58;;;1.45;;
33987;SDS011;37428;53.580;-1.666;2024-01-06T01:55:27;2.20;;;1.50;;
33987;SDS011;37428;53.580;-1.666;2024-01-06T01:58:30;3.33;;;1.33;;
33987;SDS011;37428;53.580;-1.666;2024-01-06T02:01:32;2.17;;;1.30;;
33987;SDS011;37428;53.580;-1.666;2024-01-06T02:04:35;2.53;;;1.00;;
33987;SDS011;37428;53.580;-1.666;2024-01-06T02:07:38;2.28;;;1.05;;
33987;SDS011;37428;53.580;-1.666;2024-01-06T02:10:42;2.92;;;1.50;;
33987;SDS011;37428;53.580;-1.666;2024-01-06T02:13:44;1.60;;;0.95;;
33987;SDS011;37428;53.580;-1.666;2024-01-06T02:16:46;1.40;;;1.02;;
33987;SDS011;37428;53.580;-1.666;2024-01-06T02:19:49;2.50;;;0.70;;
33987;SDS011;37428;53.580;-1.666;2024-01-06T02:25:56;3.78;;;1.45;;
33987;SDS011;37428;53.580;-1.666;2024-01-06T02:28:58;2.15;;;0.80;;
33987;SDS011;37428;53.580;-1.666;2024-01-06T02:32:01;1.73;;;0.50;;
33987;SDS011;37428;53.580;-1.666;2024-01-06T02:38:07;0.73;;;0.60;;
33987;SDS011;37428;53.580;-1.666;2024-01-06T02:41:10;1.92;;;0.73;;
33987;SDS011;37428;53.580;-1.666;2024-01-06T02:44:12;1.33;;;0.40;;
33987;SDS011;37428;53.580;-1.666;2024-01-06T02:47:14;2.85;;;0.93;;
33987;SDS011;37428;53.580;-1.666;2024-01-06T02:50:17;2.53;;;0.50;;
33987;SDS011;37428;53.580;-1.666;2024-01-06T02:53:21;2.22;;;0.70;;
33987;SDS011;37428;53.580;-1.666;2024-01-06T02:56:23;1.38;;;1.10;;
33987;SDS011;37428;53.580;-1.666;2024-01-06T02:59:25;1.90;;;1.15;;
33987;SDS011;37428;53.580;-1.666;2024-01-06T03:02:27;1.83;;;1.15;;
33987;SDS011;37428;53.580;-1.666;2024-01-06T03:05:30;3.78;;;1.30;;
33987;SDS011;37428;53.580;-1.666;2024-01-06T03:11:36;3.08;;;1.20;;
33987;SDS011;37428;53.580;-1.666;2024-01-06T03:14:38;1.88;;;1.25;;
33987;SDS011;37428;53.580;-1.666;2024-01-06T03:17:40;1.80;;;1.30;;
33987;SDS011;37428;53.580;-1.666;2024-01-06T03:20:43;3.75;;;1.80;;
33987;SDS011;37428;53.580;-1.666;2024-01-06T03:23:47;2.63;;;1.50;;
33987;SDS011;37428;53.580;-1.666;2024-01-06T03:26:50;3.17;;;1.33;;
33987;SDS011;37428;53.580;-1.666;2024-01-06T03:29:52;3.72;;;1.55;;
33987;SDS011;37428;53.580;-1.666;2024-01-06T03:32:54;3.90;;;1.38;;
33987;SDS011;37428;53.580;-1.666;2024-01-06T03:35:56;1.52;;;1.42;;
33987;SDS011;37428;53.580;-1.666;2024-01-06T03:39:00;2.10;;;1.40;;
33987;SDS011;37428;53.580;-1.666;2024-01-06T03:42:02;3.03;;;1.35;;
33987;SDS011;37428;53.580;-1.666;2024-01-06T03:48:07;2.22;;;1.50;;
33987;SDS011;37428;53.580;-1.666;2024-01-06T03:51:10;3.00;;;1.52;;
33987;SDS011;37428;53.580;-1.666;2024-01-06T03:54:15;2.65;;;1.52;;
33987;SDS011;37428;53.580;-1.666;2024-01-06T03:57:17;3.80;;;1.20;;
33987;SDS011;37428;53.580;-1.666;2024-01-06T04:00:19;2.92;;;1.73;;
33987;SDS011;37428;53.580;-1.666;2024-01-06T04:03:21;1.92;;;1.40;;
33987;SDS011;37428;53.580;-1.666;2024-01-06T04:06:24;3.47;;;1.70;;
33987;SDS011;37428;53.580;-1.666;2024-01-06T04:09:27;4.03;;;1.70;;
33987;SDS011;37428;53.580;-1.666;2024-01-06T04:12:30;4.28;;;1.42;;
33987;SDS011;37428;53.580;-1.666;2024-01-06T04:18:34;6.13;;;2.00;;
33987;SDS011;37428;53.580;-1.666;2024-01-06T04:21:36;2.13;;;1.67;;
33987;SDS011;37428;53.580;-1.666;2024-01-06T04:24:40;4.72;;;1.63;;
33987;SDS011;37428;53.580;-1.666;2024-01-06T04:27:42;4.65;;;1.80;;
33987;SDS011;37428;53.580;-1.666;2024-01-06T04:30:46;5.35;;;2.83;;
33987;SDS011;37428;53.580;-1.666;2024-01-06T04:36:51;3.92;;;1.80;;
33987;SDS011;37428;53.580;-1.666;2024-01-06T04:39:55;7.25;;;1.77;;
33987;SDS011;37428;53.580;-1.666;2024-01-06T04:42:57;8.30;;;1.50;;
33987;SDS011;37428;53.580;-1.666;2024-01-06T04:45:59;3.97;;;2.10;;
33987;SDS011;37428;53.580;-1.666;2024-01-06T04:49:02;5.20;;;1.90;;
33987;SDS011;37428;53.580;-1.666;2024-01-06T04:55:08;3.15;;;1.83;;
33987;SDS011;37428;53.580;-1.666;2024-01-06T04:58:11;4.43;;;1.70;;
33987;SDS011;37428;53.580;-1.666;2024-01-06T05:01:13;6.32;;;1.90;;
33987;SDS011;37428;53.580;-1.666;2024-01-06T05:07:22;4.68;;;1.77;;
33987;SDS011;37428;53.580;-1.666;2024-01-06T05:10:26;3.72;;;1.77;;
33987;SDS011;37428;53.580;-1.666;2024-01-06T05:13:28;3.85;;;1.70;;
33987;SDS011;37428;53.580;-1.666;2024-01-06T05:16:31;6.18;;;1.85;;
33987;SDS011;37428;53.580;-1.666;2024-01-06T05:19:33;4.97;;;2.13;;
33987;SDS011;37428;53.580;-1.666;2024-01-06T05:22:35;4.20;;;1.33;;
33987;SDS011;37428;53.580;-1.666;2024-01-06T05:25:39;4.60;;;2.08;;
33987;SDS011;37428;53.580;-1.666;2024-01-06T05:28:41;6.13;;;2.05;;
33987;SDS011;37428;53.580;-1.666;2024-01-06T05:31:43;2.17;;;1.75;;
33987;SDS011;37428;53.580;-1.666;2024-01-06T05:34:49;4.10;;;1.95;;
33987;SDS011;37428;53.580;-1.666;2024-01-06T05:37:51;4.63;;;1.63;;
33987;SDS011;37428;53.580;-1.666;2024-01-06T05:40:54;3.55;;;2.17;;
33987;SDS011;37428;53.580;-1.666;2024-01-06T05:43:57;3.42;;;1.58;;
33987;SDS011;37428;53.580;-1.666;2024-01-06T05:46:59;7.50;;;1.90;;
33987;SDS011;37428;53.580;-1.666;2024-01-06T05:50:02;5.18;;;1.67;;
33987;SDS011;37428;53.580;-1.666;2024-01-06T05:53:04;3.35;;;1.38;;
33987;SDS011;37428;53.580;-1.666;2024-01-06T05:59:10;5.95;;;1.70;;
33987;SDS011;37428;53.580;-1.666;2024-01-06T06:02:12;4.57;;;1.30;;
33987;SDS011;37428;53.580;-1.666;2024-01-06T06:05:15;6.68;;;1.58;;
33987;SDS011;37428;53.580;-1.666;2024-01-06T06:08:17;3.42;;;1.30;;
33987;SDS011;37428;53.580;-1.666;2024-01-06T06:11:20;4.15;;;1.92;;
33987;SDS011;37428;53.580;-1.666;2024-01-06T06:14:23;4.88;;;1.73;;
33987;SDS011;37428;53.580;-1.666;2024-01-06T06:17:25;7.50;;;1.55;;
33987;SDS011;37428;53.580;-1.666;2024-01-06T06:20:27;3.88;;;1.52;;
33987;SDS011;37428;53.580;-1.666;2024-01-06T06:23:30;5.20;;;1.50;;
33987;SDS011;37428;53.580;-1.666;2024-01-06T06:29:36;5.57;;;1.17;;
33987;SDS011;37428;53.580;-1.666;2024-01-06T06:32:39;8.07;;;1.88;;
33987;SDS011;37428;53.580;-1.666;2024-01-06T06:35:41;7.15;;;1.30;;
33987;SDS011;37428;53.580;-1.666;2024-01-06T06:38:43;4.65;;;1.35;;
33987;SDS011;37428;53.580;-1.666;2024-01-06T06:41:47;3.95;;;1.27;;
33987;SDS011;37428;53.580;-1.666;2024-01-06T06:44:49;4.25;;;1.40;;
33987;SDS011;37428;53.580;-1.666;2024-01-06T06:47:52;6.95;;;1.30;;
33987;SDS011;37428;53.580;-1.666;2024-01-06T06:50:54;2.40;;;0.85;;
33987;SDS011;37428;53.580;-1.666;2024-01-06T06:53:56;3.88;;;1.45;;
33987;SDS011;37428;53.580;-1.666;2024-01-06T06:57:00;8.05;;;1.45;;
33987;SDS011;37428;53.580;-1.666;2024-01-06T07:00:03;7.93;;;1.50;;
33987;SDS011;37428;53.580;-1.666;2024-01-06T07:03:07;7.50;;;1.48;;
33987;SDS011;37428;53.580;-1.666;2024-01-06T07:06:11;3.65;;;1.25;;
33987;SDS011;37428;53.580;-1.666;2024-01-06T07:09:20;9.31;;;1.81;;
33987;SDS011;37428;53.580;-1.666;2024-01-06T07:12:26;7.28;;;1.35;;
33987;SDS011;37428;53.580;-1.666;2024-01-06T07:15:28;5.28;;;1.30;;
33987;SDS011;37428;53.580;-1.666;2024-01-06T07:18:31;7.20;;;1.17;;
33987;SDS011;37428;53.580;-1.666;2024-01-06T07:21:33;4.43;;;1.23;;
33987;SDS011;37428;53.580;-1.666;2024-01-06T07:24:35;4.75;;;1.23;;
33987;SDS011;37428;53.580;-1.666;2024-01-06T07:27:39;3.97;;;1.17;;
33987;SDS011;37428;53.580;-1.666;2024-01-06T07:30:41;2.25;;;1.20;;
33987;SDS011;37428;53.580;-1.666;2024-01-06T07:36:46;4.50;;;1.35;;
33987;SDS011;37428;53.580;-1.666;2024-01-06T07:39:48;3.50;;;0.85;;
33987;SDS011;37428;53.580;-1.666;2024-01-06T07:45:54;11.85;;;1.30;;
33987;SDS011;37428;53.580;-1.666;2024-01-06T07:48:56;8.23;;;1.45;;
33987;SDS011;37428;53.580;-1.666;2024-01-06T07:51:58;5.72;;;1.13;;
33987;SDS011;37428;53.580;-1.666;2024-01-06T07:58:05;5.07;;;1.20;;
33987;SDS011;37428;53.580;-1.666;2024-01-06T08:01:07;1.77;;;0.82;;
33987;SDS011;37428;53.580;-1.666;2024-01-06T08:04:09;5.65;;;1.35;;
33987;SDS011;37428;53.580;-1.666;2024-01-06T08:07:11;13.20;;;1.52;;
33987;SDS011;37428;53.580;-1.666;2024-01-06T08:16:20;5.15;;;1.42;;
33987;SDS011;37428;53.580;-1.666;2024-01-06T08:19:23;2.75;;;1.08;;
33987;SDS011;37428;53.580;-1.666;2024-01-06T08:22:26;4.32;;;1.30;;
33987;SDS011;37428;53.580;-1.666;2024-01-06T08:25:28;11.13;;;2.40;;
33987;SDS011;37428;53.580;-1.666;2024-01-06T08:28:32;5.05;;;1.38;;
33987;SDS011;37428;53.580;-1.666;2024-01-06T08:31:34;6.30;;;1.60;;
33987;SDS011;37428;53.580;-1.666;2024-01-06T08:34:36;4.72;;;1.10;;
33987;SDS011;37428;53.580;-1.666;2024-01-06T08:40:41;5.57;;;1.30;;
33987;SDS011;37428;53.580;-1.666;2024-01-06T08:43:46;2.97;;;1.00;;
33987;SDS011;37428;53.580;-1.666;2024-01-06T08:46:49;4.45;;;1.40;;
33987;SDS011;37428;53.580;-1.666;2024-01-06T08:49:52;8.10;;;1.27;;
33987;SDS011;37428;53.580;-1.666;2024-01-06T08:55:56;8.40;;;2.60;;
33987;SDS011;37428;53.580;-1.666;2024-01-06T08:58:59;9.32;;;3.25;;
33987;SDS011;37428;53.580;-1.666;2024-01-06T09:02:03;7.03;;;2.53;;
33987;SDS011;37428;53.580;-1.666;2024-01-06T09:05:06;7.00;;;2.03;;
33987;SDS011;37428;53.580;-1.666;2024-01-06T09:08:08;9.68;;;1.85;;
33987;SDS011;37428;53.580;-1.666;2024-01-06T09:14:16;5.60;;;1.00;;
33987;SDS011;37428;53.580;-1.666;2024-01-06T09:17:19;5.03;;;2.25;;
33987;SDS011;37428;53.580;-1.666;2024-01-06T09:20:22;8.20;;;1.55;;
33987;SDS011;37428;53.580;-1.666;2024-01-06T09:23:25;8.90;;;2.13;;
33987;SDS011;37428;53.580;-1.666;2024-01-06T09:26:27;5.40;;;1.55;;
33987;SDS011;37428;53.580;-1.666;2024-01-06T09:29:31;5.88;;;1.48;;
33987;SDS011;37428;53.580;-1.666;2024-01-06T09:32:33;3.83;;;1.27;;
33987;SDS011;37428;53.580;-1.666;2024-01-06T09:35:35;3.25;;;1.15;;
33987;SDS011;37428;53.580;-1.666;2024-01-06T09:41:40;2.87;;;0.97;;
33987;SDS011;37428;53.580;-1.666;2024-01-06T09:44:43;4.35;;;1.00;;
33987;SDS011;37428;53.580;-1.666;2024-01-06T09:47:47;5.25;;;1.80;;
33987;SDS011;37428;53.580;-1.666;2024-01-06T09:50:51;8.27;;;1.38;;
33987;SDS011;37428;53.580;-1.666;2024-01-06T09:53:58;4.57;;;1.50;;
33987;SDS011;37428;53.580;-1.666;2024-01-06T09:57:02;5.65;;;1.42;;
33987;SDS011;37428;53.580;-1.666;2024-01-06T10:00:08;4.57;;;1.48;;
33987;SDS011;37428;53.580;-1.666;2024-01-06T10:03:11;2.63;;;1.17;;
33987;SDS011;37428;53.580;-1.666;2024-01-06T10:06:14;4.63;;;1.25;;
33987;SDS011;37428;53.580;-1.666;2024-01-06T10:09:25;4.07;;;2.78;;
33987;SDS011;37428;53.580;-1.666;2024-01-06T10:12:29;3.40;;;2.50;;
33987;SDS011;37428;53.580;-1.666;2024-01-06T10:18:36;4.78;;;1.50;;
33987;SDS011;37428;53.580;-1.666;2024-01-06T10:21:39;6.07;;;1.27;;
33987;SDS011;37428;53.580;-1.666;2024-01-06T10:27:43;7.13;;;1.73;;
33987;SDS011;37428;53.580;-1.666;2024-01-06T10:30:47;8.70;;;2.05;;
33987;SDS011;37428;53.580;-1.666;2024-01-06T10:33:50;8.88;;;3.28;;
33987;SDS011;37428;53.580;-1.666;2024-01-06T10:36:52;14.38;;;3.78;;
33987;SDS011;37428;53.580;-1.666;2024-01-06T10:40:07;11.32;;;4.00;;
33987;SDS011;37428;53.580;-1.666;2024-01-06T10:43:10;8.10;;;2.70;;
33987;SDS011;37428;53.580;-1.666;2024-01-06T10:46:15;5.55;;;1.63;;
33987;SDS011;37428;53.580;-1.666;2024-01-06T10:49:20;4.78;;;1.52;;
33987;SDS011;37428;53.580;-1.666;2024-01-06T10:52:23;3.90;;;1.63;;
33987;SDS011;37428;53.580;-1.666;2024-01-06T10:55:27;6.65;;;2.00;;
33987;SDS011;37428;53.580;-1.666;2024-01-06T10:58:31;4.85;;;2.20;;
33987;SDS011;37428;53.580;-1.666;2024-01-06T11:01:38;4.70;;;1.70;;
33987;SDS011;37428;53.580;-1.666;2024-01-06T11:04:42;6.10;;;2.65;;
33987;SDS011;37428;53.580;-1.666;2024-01-06T11:07:45;5.75;;;2.22;;
33987;SDS011;37428;53.580;-1.666;2024-01-06T11:10:51;6.00;;;2.08;;
33987;SDS011;37428;53.580;-1.666;2024-01-06T11:14:00;8.27;;;2.35;;
33987;SDS011;37428;53.580;-1.666;2024-01-06T11:21:14;4.57;;;1.80;;
33987;SDS011;37428;53.580;-1.666;2024-01-06T11:24:21;7.78;;;2.33;;
33987;SDS011;37428;53.580;-1.666;2024-01-06T11:27:27;7.82;;;2.10;;
33987;SDS011;37428;53.580;-1.666;2024-01-06T11:30:29;3.47;;;1.67;;
33987;SDS011;37428;53.580;-1.666;2024-01-06T11:33:35;4.40;;;1.30;;
33987;SDS011;37428;53.580;-1.666;2024-01-06T11:36:43;4.97;;;1.90;;
33987;SDS011;37428;53.580;-1.666;2024-01-06T11:39:46;3.88;;;1.70;;
33987;SDS011;37428;53.580;-1.666;2024-01-06T11:42:56;5.28;;;1.75;;
33987;SDS011;37428;53.580;-1.666;2024-01-06T11:46:00;5.45;;;1.67;;
33987;SDS011;37428;53.580;-1.666;2024-01-06T11:49:04;7.75;;;1.92;;
33987;SDS011;37428;53.580;-1.666;2024-01-06T11:52:07;3.97;;;1.65;;
33987;SDS011;37428;53.580;-1.666;2024-01-06T11:55:10;11.20;;;2.20;;
33987;SDS011;37428;53.580;-1.666;2024-01-06T11:58:12;6.28;;;1.88;;
33987;SDS011;37428;53.580;-1.666;2024-01-06T12:01:15;5.47;;;1.80;;
33987;SDS011;37428;53.580;-1.666;2024-01-06T12:04:18;5.22;;;2.55;;
33987;SDS011;37428;53.580;-1.666;2024-01-06T12:07:22;6.22;;;1.80;;
33987;SDS011;37428;53.580;-1.666;2024-01-06T12:10:25;5.05;;;1.95;;
33987;SDS011;37428;53.580;-1.666;2024-01-06T12:13:28;5.47;;;1.95;;
33987;SDS011;37428;53.580;-1.666;2024-01-06T12:16:30;7.95;;;1.88;;
33987;SDS011;37428;53.580;-1.666;2024-01-06T12:19:34;5.50;;;1.80;;
33987;SDS011;37428;53.580;-1.666;2024-01-06T12:22:37;4.22;;;2.10;;
33987;SDS011;37428;53.580;-1.666;2024-01-06T12:25:41;7.97;;;1.70;;
33987;SDS011;37428;53.580;-1.666;2024-01-06T12:28:48;3.78;;;1.83;;
33987;SDS011;37428;53.580;-1.666;2024-01-06T12:31:51;8.32;;;2.08;;
33987;SDS011;37428;53.580;-1.666;2024-01-06T12:37:57;6.25;;;2.33;;
33987;SDS011;37428;53.580;-1.666;2024-01-06T12:41:00;7.38;;;2.10;;
33987;SDS011;37428;53.580;-1.666;2024-01-06T12:44:03;6.63;;;2.63;;
33987;SDS011;37428;53.580;-1.666;2024-01-06T12:47:05;4.35;;;2.47;;
33987;SDS011;37428;53.580;-1.666;2024-01-06T12:50:09;9.82;;;2.22;;
33987;SDS011;37428;53.580;-1.666;2024-01-06T12:53:11;5.93;;;2.40;;
33987;SDS011;37428;53.580;-1.666;2024-01-06T12:56:15;3.63;;;1.73;;
33987;SDS011;37428;53.580;-1.666;2024-01-06T12:59:17;4.95;;;1.55;;
33987;SDS011;37428;53.580;-1.666;2024-01-06T13:05:23;5.50;;;1.55;;
33987;SDS011;37428;53.580;-1.666;2024-01-06T13:08:26;6.38;;;1.58;;
33987;SDS011;37428;53.580;-1.666;2024-01-06T13:11:29;3.88;;;1.10;;
33987;SDS011;37428;53.580;-1.666;2024-01-06T13:14:31;3.97;;;1.38;;
33987;SDS011;37428;53.580;-1.666;2024-01-06T13:17:33;2.83;;;1.27;;
33987;SDS011;37428;53.580;-1.666;2024-01-06T13:20:38;6.45;;;1.77;;
33987;SDS011;37428;53.580;-1.666;2024-01-06T13:23:41;5.65;;;2.03;;
33987;SDS011;37428;53.580;-1.666;2024-01-06T13:26:44;8.43;;;1.73;;
33987;SDS011;37428;53.580;-1.666;2024-01-06T13:29:46;5.97;;;1.80;;
33987;SDS011;37428;53.580;-1.666;2024-01-06T13:32:49;13.98;;;2.85;;
33987;SDS011;37428;53.580;-1.666;2024-01-06T13:35:53;3.63;;;1.40;;
33987;SDS011;37428;53.580;-1.666;2024-01-06T13:38:56;6.95;;;1.73;;
33987;SDS011;37428;53.580;-1.666;2024-01-06T13:42:00;7.68;;;1.83;;
33987;SDS011;37428;53.580;-1.666;2024-01-06T13:45:03;5.85;;;1.52;;
33987;SDS011;37428;53.580;-1.666;2024-01-06T13:48:07;4.07;;;1.20;;
33987;SDS011;37428;53.580;-1.666;2024-01-06T13:54:12;5.38;;;1.17;;
33987;SDS011;37428;53.580;-1.666;2024-01-06T13:57:15;3.83;;;1.58;;
33987;SDS011;37428;53.580;-1.666;2024-01-06T14:00:17;4.43;;;1.38;;
33987;SDS011;37428;53.580;-1.666;2024-01-06T14:03:20;3.33;;;1.13;;
33987;SDS011;37428;53.580;-1.666;2024-01-06T14:06:25;8.52;;;1.35;;
33987;SDS011;37428;53.580;-1.666;2024-01-06T14:09:30;8.48;;;1.70;;
33987;SDS011;37428;53.580;-1.666;2024-01-06T14:12:32;8.57;;;1.80;;
33987;SDS011;37428;53.580;-1.666;2024-01-06T14:15:34;5.82;;;1.35;;
33987;SDS011;37428;53.580;-1.666;2024-01-06T14:18:36;4.07;;;1.73;;
33987;SDS011;37428;53.580;-1.666;2024-01-06T14:21:40;5.07;;;1.55;;
33987;SDS011;37428;53.580;-1.666;2024-01-06T14:24:43;6.25;;;1.85;;
33987;SDS011;37428;53.580;-1.666;2024-01-06T14:30:47;6.50;;;1.52;;
33987;SDS011;37428;53.580;-1.666;2024-01-06T14:33:50;5.35;;;2.17;;
33987;SDS011;37428;53.580;-1.666;2024-01-06T14:36:53;5.70;;;1.80;;
33987;SDS011;37428;53.580;-1.666;2024-01-06T14:39:56;6.40;;;2.47;;
33987;SDS011;37428;53.580;-1.666;2024-01-06T14:42:58;9.15;;;2.03;;
33987;SDS011;37428;53.580;-1.666;2024-01-06T14:46:02;8.65;;;2.00;;
33987;SDS011;37428;53.580;-1.666;2024-01-06T14:49:05;5.85;;;3.30;;
33987;SDS011;37428;53.580;-1.666;2024-01-06T14:52:09;5.05;;;2.20;;
33987;SDS011;37428;53.580;-1.666;2024-01-06T14:55:11;10.23;;;4.38;;
33987;SDS011;37428;53.580;-1.666;2024-01-06T14:58:14;13.45;;;5.10;;
33987;SDS011;37428;53.580;-1.666;2024-01-06T15:01:16;12.13;;;2.45;;
33987;SDS011;37428;53.580;-1.666;2024-01-06T15:04:18;14.25;;;2.42;;
33987;SDS011;37428;53.580;-1.666;2024-01-06T15:07:22;6.38;;;2.30;;
33987;SDS011;37428;53.580;-1.666;2024-01-06T15:10:25;16.10;;;5.45;;
33987;SDS011;37428;53.580;-1.666;2024-01-06T15:13:29;15.87;;;5.00;;
33987;SDS011;37428;53.580;-1.666;2024-01-06T15:16:31;8.43;;;3.75;;
33987;SDS011;37428;53.580;-1.666;2024-01-06T15:19:33;11.43;;;4.00;;
33987;SDS011;37428;53.580;-1.666;2024-01-06T15:22:39;15.55;;;5.43;;
33987;SDS011;37428;53.580;-1.666;2024-01-06T15:25:41;17.10;;;6.60;;
33987;SDS011;37428;53.580;-1.666;2024-01-06T15:28:43;12.80;;;4.95;;
33987;SDS011;37428;53.580;-1.666;2024-01-06T15:31:46;16.10;;;4.97;;
33987;SDS011;37428;53.580;-1.666;2024-01-06T15:34:48;15.65;;;4.53;;
33987;SDS011;37428;53.580;-1.666;2024-01-06T15:37:52;14.00;;;4.88;;
33987;SDS011;37428;53.580;-1.666;2024-01-06T15:40:54;22.63;;;5.75;;
33987;SDS011;37428;53.580;-1.666;2024-01-06T15:43:56;11.48;;;5.75;;
33987;SDS011;37428;53.580;-1.666;2024-01-06T15:46:59;18.85;;;6.50;;
33987;SDS011;37428;53.580;-1.666;2024-01-06T15:50:01;16.35;;;6.93;;
33987;SDS011;37428;53.580;-1.666;2024-01-06T15:56:07;11.88;;;5.70;;
33987;SDS011;37428;53.580;-1.666;2024-01-06T15:59:09;6.13;;;3.85;;
33987;SDS011;37428;53.580;-1.666;2024-01-06T16:02:12;10.82;;;3.30;;
33987;SDS011;37428;53.580;-1.666;2024-01-06T16:05:14;9.10;;;3.28;;
33987;SDS011;37428;53.580;-1.666;2024-01-06T16:08:18;10.30;;;3.38;;
33987;SDS011;37428;53.580;-1.666;2024-01-06T16:11:20;6.47;;;3.25;;
33987;SDS011;37428;53.580;-1.666;2024-01-06T16:14:23;7.20;;;3.58;;
33987;SDS011;37428;53.580;-1.666;2024-01-06T16:17:25;8.23;;;2.47;;
33987;SDS011;37428;53.580;-1.666;2024-01-06T16:20:27;6.95;;;2.58;;
33987;SDS011;37428;53.580;-1.666;2024-01-06T16:23:31;11.65;;;3.67;;
33987;SDS011;37428;53.580;-1.666;2024-01-06T16:26:34;18.20;;;7.38;;
33987;SDS011;37428;53.580;-1.666;2024-01-06T16:29:36;14.30;;;6.07;;
33987;SDS011;37428;53.580;-1.666;2024-01-06T16:35:41;21.27;;;12.38;;
33987;SDS011;37428;53.580;-1.666;2024-01-06T16:38:47;32.70;;;19.55;;
33987;SDS011;37428;53.580;-1.666;2024-01-06T16:41:49;38.50;;;21.77;;
33987;SDS011;37428;53.580;-1.666;2024-01-06T16:44:52;32.78;;;17.85;;
33987;SDS011;37428;53.580;-1.666;2024-01-06T16:47:54;18.35;;;12.68;;
33987;SDS011;37428;53.580;-1.666;2024-01-06T16:50:57;19.55;;;11.27;;
33987;SDS011;37428;53.580;-1.666;2024-01-06T16:54:00;13.50;;;8.88;;
33987;SDS011;37428;53.580;-1.666;2024-01-06T16:57:03;23.52;;;14.65;;
33987;SDS011;37428;53.580;-1.666;2024-01-06T17:03:09;13.52;;;9.07;;
33987;SDS011;37428;53.580;-1.666;2024-01-06T17:06:12;15.98;;;10.77;;
33987;SDS011;37428;53.580;-1.666;2024-01-06T17:09:15;15.23;;;8.70;;
33987;SDS011;37428;53.580;-1.666;2024-01-06T17:12:18;18.48;;;8.98;;
33987;SDS011;37428;53.580;-1.666;2024-01-06T17:15:21;11.13;;;6.57;;
33987;SDS011;37428;53.580;-1.666;2024-01-06T17:18:26;10.32;;;5.14;;
33987;SDS011;37428;53.580;-1.666;2024-01-06T17:21:28;10.73;;;6.15;;
33987;SDS011;37428;53.580;-1.666;2024-01-06T17:24:32;12.45;;;6.22;;
33987;SDS011;37428;53.580;-1.666;2024-01-06T17:27:36;13.77;;;6.10;;
33987;SDS011;37428;53.580;-1.666;2024-01-06T17:30:38;10.77;;;6.18;;
33987;SDS011;37428;53.580;-1.666;2024-01-06T17:33:40;11.13;;;6.88;;
33987;SDS011;37428;53.580;-1.666;2024-01-06T17:36:42;12.13;;;5.78;;
33987;SDS011;37428;53.580;-1.666;2024-01-06T17:39:46;9.52;;;5.90;;
33987;SDS011;37428;53.580;-1.666;2024-01-06T17:42:48;12.55;;;6.57;;
33987;SDS011;37428;53.580;-1.666;2024-01-06T17:45:51;10.85;;;7.03;;
33987;SDS011;37428;53.580;-1.666;2024-01-06T17:48:53;9.02;;;7.22;;
33987;SDS011;37428;53.580;-1.666;2024-01-06T17:51:55;8.68;;;6.60;;
33987;SDS011;37428;53.580;-1.666;2024-01-06T17:54:59;14.93;;;7.32;;
33987;SDS011;37428;53.580;-1.666;2024-01-06T17:58:02;14.18;;;7.07;;
33987;SDS011;37428;53.580;-1.666;2024-01-06T18:01:05;13.00;;;7.00;;
33987;SDS011;37428;53.580;-1.666;2024-01-06T18:04:07;12.40;;;6.07;;
33987;SDS011;37428;53.580;-1.666;2024-01-06T18:07:10;7.28;;;6.05;;
33987;SDS011;37428;53.580;-1.666;2024-01-06T18:13:16;7.28;;;5.63;;
33987;SDS011;37428;53.580;-1.666;2024-01-06T18:16:18;11.10;;;7.88;;
33987;SDS011;37428;53.580;-1.666;2024-01-06T18:19:20;15.13;;;9.85;;
33987;SDS011;37428;53.580;-1.666;2024-01-06T18:22:23;17.65;;;10.45;;
33987;SDS011;37428;53.580;-1.666;2024-01-06T18:25:36;17.84;;;12.74;;
33987;SDS011;37428;53.580;-1.666;2024-01-06T18:28:39;15.77;;;12.00;;
33987;SDS011;37428;53.580;-1.666;2024-01-06T18:31:41;17.35;;;12.18;;
33987;SDS011;37428;53.580;-1.666;2024-01-06T18:34:43;15.90;;;11.85;;
33987;SDS011;37428;53.580;-1.666;2024-01-06T18:37:46;14.90;;;10.63;;
33987;SDS011;37428;53.580;-1.666;2024-01-06T18:40:49;17.48;;;9.18;;
33987;SDS011;37428;53.580;-1.666;2024-01-06T18:43:52;16.45;;;9.82;;
33987;SDS011;37428;53.580;-1.666;2024-01-06T18:46:54;18.88;;;11.13;;
33987;SDS011;37428;53.580;-1.666;2024-01-06T18:49:57;28.45;;;15.10;;
33987;SDS011;37428;53.580;-1.666;2024-01-06T18:52:59;17.55;;;12.88;;
33987;SDS011;37428;53.580;-1.666;2024-01-06T18:56:03;18.75;;;13.43;;
33987;SDS011;37428;53.580;-1.666;2024-01-06T18:59:05;20.33;;;12.90;;
33987;SDS011;37428;53.580;-1.666;2024-01-06T19:02:10;16.40;;;11.13;;
33987;SDS011;37428;53.580;-1.666;2024-01-06T19:05:12;21.67;;;13.80;;
33987;SDS011;37428;53.580;-1.666;2024-01-06T19:08:14;16.27;;;10.25;;
33987;SDS011;37428;53.580;-1.666;2024-01-06T19:11:18;14.15;;;8.55;;
33987;SDS011;37428;53.580;-1.666;2024-01-06T19:14:20;11.75;;;8.77;;
33987;SDS011;37428;53.580;-1.666;2024-01-06T19:17:23;18.58;;;10.25;;
33987;SDS011;37428;53.580;-1.666;2024-01-06T19:20:25;17.55;;;11.05;;
33987;SDS011;37428;53.580;-1.666;2024-01-06T19:23:27;13.02;;;9.05;;
33987;SDS011;37428;53.580;-1.666;2024-01-06T19:26:31;12.75;;;7.60;;
33987;SDS011;37428;53.580;-1.666;2024-01-06T19:29:33;11.25;;;6.50;;
33987;SDS011;37428;53.580;-1.666;2024-01-06T19:32:36;15.18;;;8.23;;
33987;SDS011;37428;53.580;-1.666;2024-01-06T19:35:38;20.35;;;10.13;;
33987;SDS011;37428;53.580;-1.666;2024-01-06T19:38:40;15.48;;;8.30;;
33987;SDS011;37428;53.580;-1.666;2024-01-06T19:41:44;14.40;;;8.45;;